createdAt,value
2022-12-08T00:01:40.207Z,2.30
2022-12-08T00:04:07.100Z,2.30
2022-12-08T00:06:56.809Z,2.20
2022-12-08T00:09:25.727Z,2.20
2022-12-08T00:11:53.980Z,2.20
2022-12-08T00:14:22.811Z,2.20
2022-12-08T00:16:49.613Z,2.20
2022-12-08T00:19:16.424Z,2.20
2022-12-08T00:21:43.081Z,2.20
2022-12-08T00:24:09.817Z,2.20
2022-12-08T00:26:37.084Z,2.10
2022-12-08T00:29:04.274Z,2.20
2022-12-08T00:31:31.220Z,2.20
2022-12-08T00:33:58.424Z,2.10
2022-12-08T00:36:25.117Z,2.10
2022-12-08T00:38:51.837Z,2.10
2022-12-08T00:41:19.563Z,2.00
2022-12-08T00:43:46.224Z,2.00
2022-12-08T00:46:12.920Z,2.00
2022-12-08T00:48:39.656Z,2.00
2022-12-08T00:51:06.386Z,2.00
2022-12-08T00:53:33.092Z,2.00
2022-12-08T00:55:59.804Z,2.00
2022-12-08T00:58:26.626Z,2.00
2022-12-08T01:00:53.351Z,2.00
2022-12-08T01:03:20.138Z,2.00
2022-12-08T01:05:46.839Z,2.00
2022-12-08T01:08:13.623Z,2.00
2022-12-08T01:10:40.343Z,2.00
2022-12-08T01:13:07.057Z,2.00
2022-12-08T01:15:33.834Z,2.00
2022-12-08T01:18:00.489Z,2.00
2022-12-08T01:20:27.242Z,2.00
2022-12-08T01:22:53.939Z,2.00
2022-12-08T01:25:20.643Z,1.90
2022-12-08T01:27:47.338Z,1.90
2022-12-08T01:30:14.165Z,1.90
2022-12-08T01:32:40.821Z,1.80
2022-12-08T01:35:07.642Z,1.70
2022-12-08T01:37:34.305Z,1.80
2022-12-08T01:40:01.283Z,1.80
2022-12-08T01:42:30.007Z,1.80
2022-12-08T01:45:07.580Z,1.80
2022-12-08T01:47:39.340Z,1.80
2022-12-08T01:50:06.719Z,1.90
2022-12-08T01:52:36.719Z,1.90
2022-12-08T01:55:10.528Z,1.90
2022-12-08T01:57:40.954Z,2.00
2022-12-08T02:00:09.603Z,2.00
2022-12-08T02:02:42.147Z,2.00
2022-12-08T02:05:09.512Z,2.10
2022-12-08T02:07:36.734Z,2.10
2022-12-08T02:10:04.121Z,2.10
2022-12-08T02:12:31.109Z,2.20
2022-12-08T02:15:04.825Z,2.20
2022-12-08T02:17:38.809Z,2.20
2022-12-08T02:20:11.703Z,2.20
2022-12-08T02:22:50.338Z,2.20
2022-12-08T02:25:20.071Z,2.30
2022-12-08T02:27:55.613Z,2.30
2022-12-08T02:30:37.504Z,2.30
2022-12-08T02:33:06.982Z,2.30
2022-12-08T02:35:54.106Z,2.30
2022-12-08T02:38:30.856Z,2.40
2022-12-08T02:41:13.534Z,2.40
2022-12-08T02:43:45.422Z,2.40
2022-12-08T02:46:16.026Z,2.40
2022-12-08T02:48:43.491Z,2.40
2022-12-08T02:51:10.163Z,2.40
2022-12-08T02:53:36.957Z,2.40
2022-12-08T02:56:03.624Z,2.40
2022-12-08T02:58:30.423Z,2.50
2022-12-08T03:01:18.386Z,2.50
2022-12-08T03:03:53.301Z,2.50
2022-12-08T03:06:28.486Z,2.50
2022-12-08T03:09:02.597Z,2.50
2022-12-08T03:11:52.976Z,2.50
2022-12-08T03:14:21.490Z,2.50
2022-12-08T03:16:49.656Z,2.60
2022-12-08T03:19:21.722Z,2.60
2022-12-08T03:21:50.303Z,2.50
2022-12-08T03:24:17.629Z,2.50
2022-12-08T03:26:51.874Z,2.60
2022-12-08T03:29:18.914Z,2.50
2022-12-08T03:31:50.105Z,2.50
2022-12-08T03:34:17.092Z,2.50
2022-12-08T03:36:44.714Z,2.50
2022-12-08T03:39:11.445Z,2.50
2022-12-08T03:41:38.152Z,2.50
2022-12-08T03:44:04.967Z,2.50
2022-12-08T03:48:57.290Z,2.50
2022-12-08T03:51:24.522Z,2.60
2022-12-08T03:53:51.188Z,2.60
2022-12-08T03:56:27.152Z,2.60
2022-12-08T03:58:54.232Z,2.60
2022-12-08T04:01:21.288Z,2.70
2022-12-08T04:03:48.539Z,2.70
2022-12-08T04:06:15.683Z,2.70
2022-12-08T04:08:42.413Z,2.70
2022-12-08T04:11:09.408Z,2.70
2022-12-08T04:13:36.752Z,2.70
2022-12-08T04:16:03.623Z,2.70
2022-12-08T04:18:30.482Z,2.70
2022-12-08T04:20:57.189Z,2.70
2022-12-08T04:23:23.856Z,2.70
2022-12-08T04:25:53.707Z,2.70
2022-12-08T04:28:20.677Z,2.60
2022-12-08T04:30:48.034Z,2.60
2022-12-08T04:33:14.703Z,2.60
2022-12-08T04:35:41.417Z,2.60
2022-12-08T04:38:08.145Z,2.60
2022-12-08T04:40:34.860Z,2.70
2022-12-08T04:43:01.526Z,2.70
2022-12-08T04:45:28.197Z,2.70
2022-12-08T04:47:54.911Z,2.70
2022-12-08T04:50:21.583Z,2.70
2022-12-08T04:52:48.317Z,2.80
2022-12-08T04:55:15.021Z,2.80
2022-12-08T04:57:41.680Z,2.80
2022-12-08T05:00:08.595Z,2.80
2022-12-08T05:02:35.403Z,2.80
2022-12-08T05:05:02.164Z,2.80
2022-12-08T05:07:28.856Z,2.80
2022-12-08T05:09:55.553Z,2.80
2022-12-08T05:12:22.232Z,2.80
2022-12-08T05:14:48.943Z,2.80
2022-12-08T05:17:18.833Z,2.80
2022-12-08T05:19:45.478Z,2.80
2022-12-08T05:22:12.173Z,2.90
2022-12-08T05:24:44.009Z,2.90
2022-12-08T05:27:13.866Z,2.90
2022-12-08T05:29:40.544Z,2.90
2022-12-08T05:32:07.237Z,2.90
2022-12-08T05:34:34.114Z,2.80
2022-12-08T05:37:00.822Z,2.80
2022-12-08T05:39:27.624Z,2.80
2022-12-08T05:41:54.267Z,2.90
2022-12-08T05:44:20.969Z,2.90
2022-12-08T05:46:47.696Z,2.90
2022-12-08T05:49:14.395Z,2.90
2022-12-08T05:51:41.131Z,2.90
2022-12-08T05:54:07.937Z,2.90
2022-12-08T05:56:34.756Z,2.90
2022-12-08T05:59:01.607Z,2.90
2022-12-08T06:01:30.399Z,2.90
2022-12-08T06:03:58.077Z,2.90
2022-12-08T06:06:24.949Z,2.90
2022-12-08T06:08:52.073Z,2.90
2022-12-08T06:11:20.033Z,2.90
2022-12-08T06:13:46.897Z,2.90
2022-12-08T06:16:13.633Z,2.90
2022-12-08T06:18:40.408Z,2.90
2022-12-08T06:21:07.946Z,2.90
2022-12-08T06:23:34.942Z,2.90
2022-12-08T06:26:02.195Z,2.90
2022-12-08T06:28:29.595Z,2.90
2022-12-08T06:30:56.336Z,2.90
2022-12-08T06:33:23.197Z,2.90
2022-12-08T06:35:49.880Z,2.90
2022-12-08T06:38:16.615Z,2.90
2022-12-08T06:40:43.296Z,2.90
2022-12-08T06:43:10.133Z,2.90
2022-12-08T06:45:37.357Z,2.90
2022-12-08T06:48:04.130Z,3.00
2022-12-08T06:50:30.890Z,2.90
2022-12-08T06:53:04.801Z,2.90
2022-12-08T06:58:19.193Z,2.90
2022-12-08T07:00:46.072Z,2.90
2022-12-08T07:03:13.277Z,2.90
2022-12-08T07:05:39.952Z,2.90
2022-12-08T07:08:07.431Z,2.90
2022-12-08T07:10:34.550Z,2.90
2022-12-08T07:13:01.279Z,2.80
2022-12-08T07:15:28.050Z,2.80
2022-12-08T07:17:59.537Z,2.80
2022-12-08T07:20:26.731Z,2.70
2022-12-08T07:22:53.470Z,2.80
2022-12-08T07:25:20.430Z,2.80
2022-12-08T07:27:47.274Z,2.70
2022-12-08T07:30:14.163Z,2.70
2022-12-08T07:32:40.842Z,2.70
2022-12-08T07:35:07.803Z,2.70
2022-12-08T07:37:35.081Z,2.60
2022-12-08T07:40:02.140Z,2.50
2022-12-08T07:42:29.174Z,2.50
2022-12-08T07:44:55.969Z,2.50
2022-12-08T07:47:22.649Z,2.50
2022-12-08T07:49:49.392Z,2.50
2022-12-08T07:52:16.087Z,2.50
2022-12-08T07:54:42.804Z,2.40
2022-12-08T07:57:09.962Z,2.40
2022-12-08T07:59:36.704Z,2.40
2022-12-08T08:02:22.814Z,2.40
2022-12-08T08:04:50.621Z,2.40
2022-12-08T08:07:17.343Z,2.40
2022-12-08T08:09:44.058Z,2.40
2022-12-08T08:12:30.351Z,2.30
2022-12-08T08:14:57.428Z,2.30
2022-12-08T08:17:24.319Z,2.30
2022-12-08T08:19:51.086Z,2.40
2022-12-08T08:22:17.774Z,2.40
2022-12-08T08:24:45.328Z,2.40
2022-12-08T08:27:12.575Z,2.40
2022-12-08T08:29:39.276Z,2.30
2022-12-08T08:32:05.971Z,2.30
2022-12-08T08:34:32.653Z,2.20
2022-12-08T08:36:59.376Z,2.20
2022-12-08T08:39:26.126Z,2.20
2022-12-08T08:41:52.879Z,2.20
2022-12-08T08:44:19.634Z,2.20
2022-12-08T08:46:46.389Z,2.20
2022-12-08T08:49:13.179Z,2.30
2022-12-08T08:51:39.961Z,2.30
2022-12-08T08:54:06.687Z,2.20
2022-12-08T08:56:33.367Z,2.30
2022-12-08T08:59:00.094Z,2.30
2022-12-08T09:01:27.812Z,2.30
2022-12-08T09:03:55.025Z,2.30
2022-12-08T09:06:22.180Z,2.30
2022-12-08T09:08:49.099Z,2.30
2022-12-08T09:11:17.869Z,2.30
2022-12-08T09:13:44.795Z,2.30
2022-12-08T09:16:11.714Z,2.30
2022-12-08T09:18:38.908Z,2.30
2022-12-08T09:21:06.947Z,2.40
2022-12-08T09:23:35.770Z,2.40
2022-12-08T09:26:03.425Z,2.40
2022-12-08T09:28:30.142Z,2.40
2022-12-08T09:30:56.957Z,2.40
2022-12-08T09:33:23.691Z,2.40
2022-12-08T09:35:50.353Z,2.50
2022-12-08T09:38:17.519Z,2.50
2022-12-08T09:40:52.196Z,2.50
2022-12-08T09:43:18.861Z,2.50
2022-12-08T09:45:46.146Z,2.50
2022-12-08T09:48:17.515Z,2.50
2022-12-08T09:50:52.619Z,2.50
2022-12-08T09:53:28.321Z,2.40
2022-12-08T09:56:08.251Z,2.40
2022-12-08T09:58:48.303Z,2.40
2022-12-08T10:01:15.325Z,2.40
2022-12-08T10:03:42.407Z,2.40
2022-12-08T10:06:15.294Z,2.40
2022-12-08T10:08:47.852Z,2.50
2022-12-08T10:11:17.915Z,2.50
2022-12-08T10:14:04.357Z,2.50
2022-12-08T10:16:34.263Z,2.50
2022-12-08T10:19:02.776Z,2.50
2022-12-08T10:21:30.155Z,2.50
2022-12-08T10:24:01.851Z,2.50
2022-12-08T10:26:32.666Z,2.50
2022-12-08T10:29:02.718Z,2.60
2022-12-08T10:31:30.658Z,2.60
2022-12-08T10:33:58.933Z,2.60
2022-12-08T10:36:46.702Z,2.70
2022-12-08T10:39:34.985Z,2.70
2022-12-08T10:42:09.441Z,2.70
2022-12-08T10:44:54.973Z,2.80
2022-12-08T10:47:23.033Z,2.80
2022-12-08T10:50:05.984Z,2.90
2022-12-08T10:52:37.726Z,2.90
2022-12-08T10:55:04.588Z,2.90
2022-12-08T10:57:31.273Z,2.90
2022-12-08T10:59:57.970Z,2.90
2022-12-08T11:02:24.785Z,2.80
2022-12-08T11:04:59.107Z,2.80
2022-12-08T11:07:26.457Z,2.80
2022-12-08T11:09:55.468Z,2.80
2022-12-08T11:12:22.755Z,2.90
2022-12-08T11:14:50.760Z,2.90
2022-12-08T11:17:23.270Z,2.90
2022-12-08T11:19:56.097Z,2.90
2022-12-08T11:22:29.023Z,2.90
2022-12-08T11:25:02.221Z,2.90
2022-12-08T11:27:28.964Z,2.80
2022-12-08T11:29:56.058Z,2.80
2022-12-08T11:32:22.766Z,2.80
2022-12-08T11:34:52.693Z,2.80
2022-12-08T11:37:23.408Z,2.80
2022-12-08T11:39:53.402Z,2.90
2022-12-08T11:42:22.779Z,2.90
2022-12-08T11:44:52.570Z,2.80
2022-12-08T11:47:22.540Z,2.80
2022-12-08T11:49:51.701Z,2.80
2022-12-08T11:52:18.346Z,2.70
2022-12-08T11:55:03.503Z,2.70
2022-12-08T11:57:30.472Z,2.70
2022-12-08T11:59:58.148Z,2.60
2022-12-08T12:02:29.886Z,2.60
2022-12-08T12:05:39.737Z,2.60
2022-12-08T12:08:12.958Z,2.60
2022-12-08T12:10:42.500Z,2.50
2022-12-08T12:13:30.605Z,2.60
2022-12-08T12:16:16.127Z,2.50
2022-12-08T12:19:00.668Z,2.50
2022-12-08T12:21:39.702Z,2.50
2022-12-08T12:24:08.828Z,2.60
2022-12-08T12:26:37.508Z,2.60
2022-12-08T12:29:05.856Z,2.60
2022-12-08T12:31:34.758Z,2.60
2022-12-08T12:34:10.954Z,2.60
2022-12-08T12:36:48.827Z,2.70
2022-12-08T12:39:18.299Z,2.70
2022-12-08T12:41:52.839Z,2.70
2022-12-08T12:44:19.519Z,2.70
2022-12-08T12:46:46.220Z,2.70
2022-12-08T12:49:31.715Z,2.70
2022-12-08T12:51:58.400Z,2.70
2022-12-08T12:54:26.099Z,2.70
2022-12-08T12:56:57.002Z,2.70
2022-12-08T12:59:32.124Z,2.70
2022-12-08T13:01:58.864Z,2.70
2022-12-08T13:04:30.394Z,2.80
2022-12-08T13:06:57.298Z,2.80
2022-12-08T13:09:28.517Z,2.90
2022-12-08T13:11:59.788Z,2.90
2022-12-08T13:14:28.549Z,2.90
2022-12-08T13:16:56.319Z,2.90
2022-12-08T13:19:23.104Z,2.90
2022-12-08T13:21:49.795Z,2.90
2022-12-08T13:24:25.842Z,2.90
2022-12-08T13:27:04.673Z,2.90
2022-12-08T13:29:31.720Z,3.00
2022-12-08T13:32:24.400Z,2.90
2022-12-08T13:34:56.116Z,2.90
2022-12-08T13:37:22.770Z,2.80
2022-12-08T13:39:49.454Z,2.80
2022-12-08T13:42:16.093Z,2.80
2022-12-08T13:45:19.834Z,2.80
2022-12-08T13:57:02.756Z,2.80
2022-12-08T13:59:19.931Z,2.80
2022-12-08T14:01:48.793Z,2.80
2022-12-08T14:07:04.214Z,2.80
2022-12-08T14:09:34.705Z,2.70
2022-12-08T14:12:09.042Z,2.80
2022-12-08T14:15:02.004Z,2.70
2022-12-08T14:17:27.586Z,2.70
2022-12-08T14:19:59.045Z,2.60
2022-12-08T14:22:32.101Z,2.60
2022-12-08T14:24:58.919Z,2.60
2022-12-08T14:27:26.356Z,2.60
2022-12-08T14:29:54.949Z,2.60
2022-12-08T14:32:23.848Z,2.50
2022-12-08T14:34:51.490Z,2.50
2022-12-08T14:37:18.279Z,2.50
2022-12-08T14:39:45.101Z,2.50
2022-12-08T14:42:15.552Z,2.50
2022-12-08T14:44:42.423Z,2.50
2022-12-08T14:47:10.617Z,2.50
2022-12-08T14:49:38.661Z,2.50
2022-12-08T14:52:11.707Z,2.50
2022-12-08T14:54:39.894Z,2.50
2022-12-08T14:57:07.215Z,2.50
2022-12-08T14:59:37.823Z,2.50
2022-12-08T15:02:16.474Z,2.50
2022-12-08T15:04:45.566Z,2.40
2022-12-08T15:07:14.685Z,2.50
2022-12-08T15:09:45.706Z,2.40
2022-12-08T15:12:12.377Z,2.40
2022-12-08T15:14:43.784Z,2.40
2022-12-08T15:17:28.693Z,2.40
2022-12-08T15:19:56.501Z,2.40
2022-12-08T15:22:23.457Z,2.40
2022-12-08T15:24:50.204Z,2.40
2022-12-08T15:27:20.954Z,2.40
2022-12-08T15:29:48.247Z,2.40
2022-12-08T15:32:19.113Z,2.30
2022-12-08T15:34:45.807Z,2.30
2022-12-08T15:37:19.138Z,2.30
2022-12-08T15:39:45.976Z,2.30
2022-12-08T15:42:13.315Z,2.20
2022-12-08T15:44:39.996Z,2.20
2022-12-08T15:47:11.714Z,2.20
2022-12-08T15:49:38.945Z,2.20
2022-12-08T15:52:11.660Z,2.20
2022-12-08T15:54:38.916Z,2.10
2022-12-08T15:57:35.931Z,2.10
2022-12-08T15:59:52.717Z,2.10
2022-12-08T16:02:22.778Z,2.10
2022-12-08T16:07:38.239Z,2.10
2022-12-08T16:10:06.707Z,2.10
2022-12-08T16:16:00.833Z,2.20
2022-12-08T16:18:28.748Z,2.20
2022-12-08T16:21:31.519Z,2.20
2022-12-08T16:23:45.615Z,2.20
2022-12-08T16:26:35.669Z,2.30
2022-12-08T16:29:01.071Z,2.30
2022-12-08T16:31:30.639Z,2.30
2022-12-08T16:33:57.537Z,2.40
2022-12-08T16:36:24.243Z,2.40
2022-12-08T16:38:50.932Z,2.40
2022-12-08T16:41:36.806Z,2.40
2022-12-08T16:44:05.371Z,2.40
2022-12-08T16:46:32.202Z,2.50
2022-12-08T16:48:59.138Z,2.50
2022-12-08T16:51:27.243Z,2.50
2022-12-08T16:53:58.412Z,2.50
2022-12-08T16:56:32.199Z,2.50
2022-12-08T16:58:59.682Z,2.50
2022-12-08T17:01:26.588Z,2.60
2022-12-08T17:04:22.522Z,2.60
2022-12-08T17:06:40.444Z,2.50
2022-12-08T17:09:07.269Z,2.50
2022-12-08T17:11:40.788Z,2.60
2022-12-08T17:14:09.790Z,2.60
2022-12-08T17:16:36.630Z,2.70
2022-12-08T17:19:03.482Z,2.70
2022-12-08T17:21:30.218Z,2.70
2022-12-08T17:23:56.934Z,2.70
2022-12-08T17:26:23.645Z,2.80
2022-12-08T17:29:05.548Z,2.80
2022-12-08T17:31:33.040Z,2.80
2022-12-08T17:34:03.562Z,2.90
2022-12-08T17:36:30.296Z,2.90
2022-12-08T17:38:59.233Z,2.90
2022-12-08T17:41:27.528Z,2.80
2022-12-08T17:43:54.307Z,2.80
2022-12-08T17:46:21.908Z,2.70
2022-12-08T17:48:48.971Z,2.80
2022-12-08T17:51:16.017Z,2.70
2022-12-08T17:53:42.867Z,2.70
2022-12-08T17:56:21.286Z,2.70
2022-12-08T17:58:53.981Z,2.60
2022-12-08T18:01:22.198Z,2.70
2022-12-08T18:03:48.896Z,2.70
2022-12-08T18:06:17.586Z,2.60
2022-12-08T18:08:44.722Z,2.60
2022-12-08T18:11:15.300Z,2.50
2022-12-08T18:13:42.241Z,2.50
2022-12-08T18:16:08.975Z,2.50
2022-12-08T18:18:35.704Z,2.50
2022-12-08T18:21:02.378Z,2.50
2022-12-08T18:23:29.111Z,2.50
2022-12-08T18:25:55.900Z,2.50
2022-12-08T18:28:23.731Z,2.50
2022-12-08T18:30:50.690Z,2.50
2022-12-08T18:33:17.510Z,2.50
2022-12-08T18:35:44.244Z,2.50
2022-12-08T18:38:10.930Z,2.50
2022-12-08T18:40:37.680Z,2.50
2022-12-08T18:43:04.464Z,2.60
2022-12-08T18:45:31.583Z,2.60
2022-12-08T18:47:58.314Z,2.50
2022-12-08T18:50:25.109Z,2.50
2022-12-08T18:52:51.803Z,2.50
2022-12-08T18:55:18.539Z,2.50
2022-12-08T18:57:45.254Z,2.50
2022-12-08T19:00:15.712Z,2.50
2022-12-08T19:02:42.826Z,2.40
2022-12-08T19:05:10.504Z,2.30
2022-12-08T19:07:37.711Z,2.40
2022-12-08T19:10:05.502Z,2.30
2022-12-08T19:12:32.652Z,2.20
2022-12-08T19:14:59.369Z,2.10
2022-12-08T19:17:26.066Z,2.10
2022-12-08T19:19:52.762Z,2.00
2022-12-08T19:22:19.429Z,2.00
2022-12-08T19:24:46.238Z,1.90
2022-12-08T19:27:12.934Z,1.90
2022-12-08T19:29:39.665Z,1.80
2022-12-08T19:32:06.457Z,1.80
2022-12-08T19:34:33.298Z,1.80
2022-12-08T19:37:00.031Z,1.80
2022-12-08T19:39:45.224Z,1.70
2022-12-08T19:42:31.919Z,1.80
2022-12-08T19:45:04.287Z,1.80
2022-12-08T19:47:31.054Z,1.80
2022-12-08T19:50:17.875Z,1.70
2022-12-08T19:52:45.002Z,1.70
2022-12-08T19:55:12.515Z,1.70
2022-12-08T19:57:39.217Z,1.60
2022-12-08T20:00:07.157Z,1.70
2022-12-08T20:02:36.687Z,1.70
2022-12-08T20:05:04.812Z,1.60
2022-12-08T20:07:31.585Z,1.60
2022-12-08T20:09:58.270Z,1.60
2022-12-08T20:12:25.024Z,1.60
2022-12-08T20:14:52.044Z,1.60
2022-12-08T20:17:19.501Z,1.70
2022-12-08T20:19:46.549Z,1.70
2022-12-08T20:22:13.358Z,1.70
2022-12-08T20:24:40.138Z,1.70
2022-12-08T20:27:06.834Z,1.70
2022-12-08T20:29:33.619Z,1.70
2022-12-08T20:32:00.449Z,1.70
2022-12-08T20:34:27.320Z,1.70
2022-12-08T20:36:54.052Z,1.70
2022-12-08T20:39:20.831Z,1.70
2022-12-08T20:41:47.710Z,1.70
2022-12-08T20:44:14.477Z,1.60
2022-12-08T20:46:45.043Z,1.60
2022-12-08T20:49:16.116Z,1.60
2022-12-08T20:51:44.499Z,1.50
2022-12-08T20:54:11.498Z,1.60
2022-12-08T20:56:42.147Z,1.60
2022-12-08T20:59:15.369Z,1.60
2022-12-08T21:01:42.293Z,1.60
2022-12-08T21:04:11.218Z,1.60
2022-12-08T21:06:38.349Z,1.60
2022-12-08T21:09:05.314Z,1.60
2022-12-08T21:11:32.251Z,1.60
2022-12-08T21:13:59.144Z,1.50
2022-12-08T21:16:26.055Z,1.50
2022-12-08T21:18:52.995Z,1.50
2022-12-08T21:21:20.007Z,1.50
2022-12-08T21:23:46.707Z,1.50
2022-12-08T21:26:15.014Z,1.50
2022-12-08T21:28:41.956Z,1.50
2022-12-08T21:31:09.443Z,1.50
2022-12-08T21:33:36.641Z,1.50
2022-12-08T21:36:09.170Z,1.50
2022-12-08T21:38:36.644Z,1.50
2022-12-08T21:41:04.731Z,1.50
2022-12-08T21:43:31.621Z,1.50
2022-12-08T21:45:58.673Z,1.50
2022-12-08T21:48:26.260Z,1.50
2022-12-08T21:50:56.189Z,1.50
2022-12-08T21:53:25.433Z,1.50
2022-12-08T21:55:52.334Z,1.40
2022-12-08T21:58:19.148Z,1.40
2022-12-08T22:00:45.843Z,1.50
2022-12-08T22:03:14.136Z,1.50
2022-12-08T22:05:41.462Z,1.50
2022-12-08T22:08:08.578Z,1.50
2022-12-08T22:10:35.577Z,1.50
2022-12-08T22:13:02.607Z,1.50
2022-12-08T22:15:29.965Z,1.50
2022-12-08T22:17:56.970Z,1.50
2022-12-08T22:20:23.844Z,1.50
2022-12-08T22:22:50.748Z,1.50
2022-12-08T22:25:17.725Z,1.50
2022-12-08T22:27:44.797Z,1.50
2022-12-08T22:30:12.331Z,1.50
2022-12-08T22:32:39.594Z,1.50
2022-12-08T22:35:06.886Z,1.50
2022-12-08T22:37:33.749Z,1.50
2022-12-08T22:40:00.635Z,1.50
2022-12-08T22:42:30.707Z,1.50
2022-12-08T22:44:57.735Z,1.40
2022-12-08T22:47:25.319Z,1.40
2022-12-08T22:49:52.416Z,1.40
2022-12-08T22:52:19.336Z,1.50
2022-12-08T22:54:46.326Z,1.50
2022-12-08T22:57:13.237Z,1.50
2022-12-08T22:59:40.976Z,1.50
2022-12-08T23:02:08.101Z,1.50
2022-12-08T23:04:35.189Z,1.50
2022-12-08T23:07:02.661Z,1.50
2022-12-08T23:09:29.468Z,1.50
2022-12-08T23:11:56.297Z,1.50
2022-12-08T23:14:23.123Z,1.50
2022-12-08T23:16:49.855Z,1.50
2022-12-08T23:19:16.608Z,1.50
2022-12-08T23:21:43.706Z,1.50
2022-12-08T23:24:10.561Z,1.50
2022-12-08T23:26:37.369Z,1.50
2022-12-08T23:29:04.048Z,1.50
2022-12-08T23:31:31.296Z,1.50
2022-12-08T23:33:58.254Z,1.50
2022-12-08T23:36:26.505Z,1.40
2022-12-08T23:38:54.248Z,1.40
2022-12-08T23:41:21.043Z,1.40
2022-12-08T23:43:49.367Z,1.40
2022-12-08T23:46:17.727Z,1.50
2022-12-08T23:48:44.690Z,1.40
2022-12-08T23:51:11.664Z,1.40
2022-12-08T23:53:38.393Z,1.40
2022-12-08T23:56:07.261Z,1.40
2022-12-08T23:58:34.439Z,1.40
